createdAt,value
2023-01-28T00:01:30.720Z,-0.30
2023-01-28T00:06:32.472Z,-0.30
2023-01-28T00:11:34.213Z,-0.30
2023-01-28T00:16:36.165Z,-0.30
2023-01-28T00:21:38.020Z,-0.40
2023-01-28T00:26:39.804Z,-0.30
2023-01-28T00:31:41.594Z,-0.30
2023-01-28T00:36:43.792Z,-0.30
2023-01-28T00:41:45.592Z,-0.30
2023-01-28T00:46:47.423Z,-0.30
2023-01-28T00:51:49.255Z,-0.30
2023-01-28T00:56:53.589Z,-0.40
2023-01-28T01:02:12.904Z,-0.30
2023-01-28T01:07:14.764Z,-0.30
2023-01-28T01:12:17.799Z,-0.30
2023-01-28T01:17:21.129Z,-0.30
2023-01-28T01:22:23.183Z,-0.30
2023-01-28T01:27:24.960Z,-0.30
2023-01-28T01:32:30.777Z,-0.30
2023-01-28T01:37:32.806Z,-0.20
2023-01-28T01:42:34.732Z,-0.20
2023-01-28T01:47:45.352Z,-0.20
2023-01-28T01:52:50.895Z,-0.20
2023-01-28T01:57:55.861Z,-0.20
2023-01-28T02:02:59.167Z,-0.20
2023-01-28T02:08:20.345Z,-0.20
2023-01-28T02:13:27.317Z,-0.10
2023-01-28T02:18:29.184Z,-0.10
2023-01-28T02:23:33.982Z,-0.20
2023-01-28T02:28:54.683Z,-0.20
2023-01-28T02:34:46.857Z,-0.20
2023-01-28T02:39:52.702Z,-0.20
2023-01-28T02:44:54.511Z,-0.20
2023-01-28T02:50:01.310Z,-0.20
2023-01-28T02:55:19.851Z,-0.20
2023-01-28T03:00:24.686Z,-0.20
2023-01-28T03:06:03.380Z,-0.20
2023-01-28T03:11:24.254Z,-0.20
2023-01-28T03:16:47.606Z,-0.20
2023-01-28T03:22:08.436Z,-0.10
2023-01-28T03:27:51.237Z,-0.20
2023-01-28T03:33:12.696Z,-0.20
2023-01-28T03:38:20.695Z,-0.20
2023-01-28T03:43:23.700Z,-0.20
2023-01-28T03:48:27.874Z,-0.20
2023-01-28T03:53:29.861Z,-0.10
2023-01-28T03:58:51.336Z,-0.20
2023-01-28T04:03:53.129Z,-0.20
2023-01-28T04:09:01.634Z,-0.20
2023-01-28T04:14:22.117Z,-0.20
2023-01-28T04:19:28.626Z,-0.20
2023-01-28T04:24:31.938Z,-0.10
2023-01-28T04:29:33.755Z,-0.10
2023-01-28T04:34:52.570Z,-0.10
2023-01-28T04:40:17.975Z,-0.10
2023-01-28T04:45:32.640Z,-0.10
2023-01-28T04:50:56.606Z,-0.10
2023-01-28T04:56:09.657Z,0.00
2023-01-28T05:01:12.619Z,0.00
2023-01-28T05:06:14.674Z,-0.10
2023-01-28T05:11:22.221Z,-0.10
2023-01-28T05:16:28.198Z,-0.10
2023-01-28T05:21:30.193Z,-0.10
2023-01-28T05:26:37.334Z,-0.20
2023-01-28T05:31:39.119Z,-0.20
2023-01-28T05:36:41.306Z,-0.20
2023-01-28T05:41:59.586Z,-0.20
2023-01-28T05:47:01.615Z,-0.20
2023-01-28T05:52:23.708Z,-0.20
2023-01-28T05:57:25.917Z,-0.20
2023-01-28T06:02:28.160Z,-0.20
2023-01-28T06:07:32.620Z,-0.20
2023-01-28T06:12:34.510Z,-0.20
2023-01-28T06:17:56.548Z,-0.20
2023-01-28T06:23:03.094Z,-0.20
2023-01-28T06:28:05.027Z,-0.20
2023-01-28T06:33:07.267Z,-0.10
2023-01-28T06:38:09.057Z,-0.10
2023-01-28T06:43:10.770Z,-0.10
2023-01-28T06:48:13.049Z,-0.10
2023-01-28T06:53:15.738Z,-0.10
2023-01-28T06:58:17.882Z,-0.20
2023-01-28T07:03:19.729Z,-0.10
2023-01-28T07:08:21.604Z,-0.10
2023-01-28T07:13:23.341Z,0.00
2023-01-28T07:18:25.184Z,0.00
2023-01-28T07:23:29.034Z,0.00
2023-01-28T07:28:31.445Z,0.00
2023-01-28T07:33:33.229Z,0.00
2023-01-28T07:38:34.948Z,0.00
2023-01-28T07:43:36.648Z,0.10
2023-01-28T07:48:38.438Z,0.00
2023-01-28T07:53:40.918Z,0.00
2023-01-28T07:58:42.656Z,0.00
2023-01-28T08:03:44.510Z,0.00
2023-01-28T08:08:48.638Z,0.00
2023-01-28T08:13:50.441Z,0.00
2023-01-28T08:18:53.035Z,0.00
2023-01-28T08:23:56.000Z,0.10
2023-01-28T08:28:57.781Z,0.10
2023-01-28T08:34:02.184Z,0.20
2023-01-28T08:39:04.285Z,0.20
2023-01-28T08:44:06.087Z,0.20
2023-01-28T08:49:07.805Z,0.30
2023-01-28T08:54:09.727Z,0.30
2023-01-28T08:59:11.967Z,0.30
2023-01-28T09:04:13.757Z,0.30
2023-01-28T09:09:15.557Z,0.30
2023-01-28T09:14:17.334Z,0.30
2023-01-28T09:19:19.045Z,0.30
2023-01-28T09:24:21.301Z,0.30
2023-01-28T09:29:23.146Z,0.40
2023-01-28T09:34:25.181Z,0.50
2023-01-28T09:39:28.507Z,0.60
2023-01-28T09:44:36.257Z,0.60
2023-01-28T09:49:45.668Z,0.60
2023-01-28T09:54:51.444Z,0.60
2023-01-28T09:59:53.465Z,0.60
2023-01-28T10:04:59.093Z,0.60
2023-01-28T10:10:03.829Z,0.60
2023-01-28T10:15:20.734Z,0.70
2023-01-28T10:20:32.956Z,0.70
2023-01-28T10:25:36.018Z,0.80
2023-01-28T10:30:42.836Z,0.80
2023-01-28T10:35:44.662Z,0.80
2023-01-28T10:40:49.300Z,0.90
2023-01-28T10:46:08.014Z,1.00
2023-01-28T10:51:09.856Z,1.00
2023-01-28T10:56:16.375Z,1.00
2023-01-28T11:01:18.127Z,1.10
2023-01-28T11:06:28.840Z,1.10
2023-01-28T11:11:30.674Z,1.20
2023-01-28T11:16:32.565Z,1.20
2023-01-28T11:21:35.623Z,1.20
2023-01-28T11:26:39.843Z,1.20
2023-01-28T11:31:44.381Z,1.20
2023-01-28T11:37:22.972Z,1.20
2023-01-28T11:42:24.716Z,1.10
2023-01-28T11:47:54.407Z,1.00
2023-01-28T11:53:22.109Z,1.00
2023-01-28T11:58:32.997Z,1.00
2023-01-28T12:03:41.897Z,1.00
2023-01-28T12:08:56.859Z,1.00
2023-01-28T12:14:22.743Z,0.90
2023-01-28T12:20:05.787Z,0.90
2023-01-28T12:25:28.478Z,0.90
2023-01-28T12:31:01.437Z,1.00
2023-01-28T12:36:26.737Z,0.90
2023-01-28T12:41:35.821Z,1.00
2023-01-28T12:46:55.643Z,1.00
2023-01-28T12:52:03.989Z,1.10
2023-01-28T12:57:09.024Z,1.20
2023-01-28T13:02:13.849Z,1.20
2023-01-28T13:07:21.200Z,1.20
2023-01-28T13:12:23.515Z,1.20
2023-01-28T13:17:31.515Z,1.10
2023-01-28T13:22:37.410Z,1.00
2023-01-28T13:27:39.244Z,0.90
2023-01-28T13:32:41.052Z,0.80
2023-01-28T13:37:47.050Z,0.70
2023-01-28T13:43:00.877Z,0.70
2023-01-28T13:48:29.793Z,0.70
2023-01-28T13:53:47.064Z,0.80
2023-01-28T13:59:16.746Z,0.90
2023-01-28T14:04:33.277Z,0.90
2023-01-28T14:09:41.245Z,0.90
2023-01-28T14:14:49.019Z,0.80
2023-01-28T14:19:53.640Z,0.80
2023-01-28T14:25:00.099Z,0.70
2023-01-28T14:30:27.869Z,0.70
2023-01-28T14:35:32.644Z,0.70
2023-01-28T14:40:37.873Z,0.70
2023-01-28T14:46:00.857Z,0.70
2023-01-28T14:51:40.166Z,0.60
2023-01-28T14:56:56.960Z,0.60
2023-01-28T15:02:00.440Z,0.40
2023-01-28T15:07:17.862Z,0.40
2023-01-28T15:12:19.627Z,0.40
2023-01-28T15:17:26.168Z,0.40
2023-01-28T15:22:28.967Z,0.30
2023-01-28T15:27:31.965Z,0.30
2023-01-28T15:32:33.848Z,0.30
2023-01-28T15:37:35.606Z,0.40
2023-01-28T15:42:38.499Z,0.40
2023-01-28T15:47:40.386Z,0.50
2023-01-28T15:52:45.323Z,0.40
2023-01-28T15:57:47.107Z,0.40
2023-01-28T16:02:53.937Z,0.40
2023-01-28T16:07:57.573Z,0.30
2023-01-28T16:13:05.181Z,0.30
2023-01-28T16:18:07.233Z,0.20
2023-01-28T16:23:22.172Z,0.20
2023-01-28T16:28:23.895Z,0.20
2023-01-28T16:33:26.237Z,0.10
2023-01-28T16:38:27.968Z,0.10
2023-01-28T16:43:29.692Z,0.10
2023-01-28T16:48:31.450Z,0.00
2023-01-28T16:53:34.002Z,0.00
2023-01-28T16:58:35.797Z,0.10
2023-01-28T17:03:38.738Z,0.10
2023-01-28T17:08:40.558Z,0.10
2023-01-28T17:13:42.279Z,0.10
2023-01-28T17:18:44.003Z,0.10
2023-01-28T17:23:45.718Z,0.00
2023-01-28T17:28:53.095Z,0.00
2023-01-28T17:33:56.892Z,0.00
2023-01-28T17:38:58.666Z,0.00
2023-01-28T17:44:00.486Z,0.00
2023-01-28T17:49:02.968Z,0.00
2023-01-28T17:54:04.753Z,-0.10
2023-01-28T17:59:06.960Z,-0.10
2023-01-28T18:04:10.145Z,-0.10
2023-01-28T18:09:13.074Z,-0.10
2023-01-28T18:14:14.881Z,-0.10
2023-01-28T18:19:16.658Z,-0.10
2023-01-28T18:24:18.994Z,-0.20
2023-01-28T18:29:23.947Z,-0.10
2023-01-28T18:34:28.901Z,-0.10
2023-01-28T18:39:31.076Z,-0.10
2023-01-28T18:44:33.105Z,-0.10
2023-01-28T18:49:34.822Z,-0.10
2023-01-28T18:54:36.589Z,-0.10
2023-01-28T18:59:38.318Z,-0.10
2023-01-28T19:04:40.153Z,-0.10
2023-01-28T19:09:41.895Z,-0.10
2023-01-28T19:14:43.610Z,-0.10
2023-01-28T19:19:45.335Z,-0.10
2023-01-28T19:24:48.139Z,-0.10
2023-01-28T19:29:49.867Z,-0.10
2023-01-28T19:34:51.697Z,-0.10
2023-01-28T19:39:53.542Z,0.00
2023-01-28T19:44:55.255Z,0.00
2023-01-28T19:49:57.099Z,0.00
2023-01-28T19:54:58.894Z,-0.10
2023-01-28T20:00:00.595Z,-0.10
2023-01-28T20:05:02.385Z,-0.10
2023-01-28T20:10:04.467Z,-0.20
2023-01-28T20:15:06.790Z,-0.10
2023-01-28T20:20:09.307Z,-0.10
2023-01-28T20:25:11.165Z,-0.20
2023-01-28T20:30:13.527Z,-0.20
2023-01-28T20:35:15.844Z,-0.20
2023-01-28T20:40:18.028Z,-0.20
2023-01-28T20:45:19.789Z,-0.20
2023-01-28T20:50:21.833Z,-0.30
2023-01-28T20:55:23.591Z,-0.30
2023-01-28T21:00:25.437Z,-0.40
2023-01-28T21:05:27.248Z,-0.40
2023-01-28T21:10:29.047Z,-0.50
2023-01-28T21:15:30.749Z,-0.50
2023-01-28T21:20:33.803Z,-0.40
2023-01-28T21:25:35.800Z,-0.40
2023-01-28T21:30:37.964Z,-0.40
2023-01-28T21:35:41.111Z,-0.50
2023-01-28T21:40:42.824Z,-0.50
2023-01-28T21:45:47.671Z,-0.60
2023-01-28T21:51:08.576Z,-0.60
2023-01-28T21:56:10.330Z,-0.60
2023-01-28T22:01:12.160Z,-0.60
2023-01-28T22:06:14.298Z,-0.60
2023-01-28T22:11:16.039Z,-0.70
2023-01-28T22:16:18.871Z,-0.70
2023-01-28T22:21:20.674Z,-0.70
2023-01-28T22:26:22.589Z,-0.70
2023-01-28T22:31:24.475Z,-0.70
2023-01-28T22:36:26.454Z,-0.80
2023-01-28T22:41:28.887Z,-0.80
2023-01-28T22:46:33.079Z,-0.80
2023-01-28T22:51:35.956Z,-0.80
2023-01-28T22:56:38.296Z,-0.90
2023-01-28T23:01:40.432Z,-0.90
2023-01-28T23:06:42.229Z,-0.90
2023-01-28T23:11:43.959Z,-0.90
2023-01-28T23:17:04.676Z,-0.90
2023-01-28T23:22:28.018Z,-0.90
2023-01-28T23:27:29.773Z,-0.90
2023-01-28T23:32:31.562Z,-0.90
2023-01-28T23:37:33.334Z,-1.00
2023-01-28T23:42:35.158Z,-1.00
2023-01-28T23:47:37.137Z,-1.00
2023-01-28T23:52:38.889Z,-1.00
2023-01-28T23:57:40.928Z,-1.10
